sensor_id;sensor_type;location;lat;lon;timestamp;P1;durP1;ratioP1;P2;durP2;ratioP2
30287;SDS011;17103;48.316;11.558;2023-08-20T00:02:16;5.38;;;3.17;;
30287;SDS011;17103;48.316;11.558;2023-08-20T00:04:45;9.32;;;3.13;;
30287;SDS011;17103;48.316;11.558;2023-08-20T00:07:12;5.28;;;3.28;;
30287;SDS011;17103;48.316;11.558;2023-08-20T00:09:39;4.53;;;3.10;;
30287;SDS011;17103;48.316;11.558;2023-08-20T00:12:04;4.43;;;2.55;;
30287;SDS011;17103;48.316;11.558;2023-08-20T00:14:51;7.30;;;3.28;;
30287;SDS011;17103;48.316;11.558;2023-08-20T00:17:18;5.75;;;2.95;;
30287;SDS011;17103;48.316;11.558;2023-08-20T00:19:44;6.45;;;3.20;;
30287;SDS011;17103;48.316;11.558;2023-08-20T00:22:10;3.97;;;2.88;;
30287;SDS011;17103;48.316;11.558;2023-08-20T00:24:36;6.72;;;3.40;;
30287;SDS011;17103;48.316;11.558;2023-08-20T00:27:02;5.00;;;3.50;;
30287;SDS011;17103;48.316;11.558;2023-08-20T00:29:27;7.13;;;3.50;;
30287;SDS011;17103;48.316;11.558;2023-08-20T00:31:55;4.10;;;2.72;;
30287;SDS011;17103;48.316;11.558;2023-08-20T00:34:21;5.85;;;3.53;;
30287;SDS011;17103;48.316;11.558;2023-08-20T00:36:47;4.25;;;2.85;;
30287;SDS011;17103;48.316;11.558;2023-08-20T00:39:13;5.00;;;3.30;;
30287;SDS011;17103;48.316;11.558;2023-08-20T00:41:40;6.35;;;3.50;;
30287;SDS011;17103;48.316;11.558;2023-08-20T00:44:06;8.27;;;3.13;;
30287;SDS011;17103;48.316;11.558;2023-08-20T00:46:32;6.03;;;3.53;;
30287;SDS011;17103;48.316;11.558;2023-08-20T00:48:57;8.65;;;4.00;;
30287;SDS011;17103;48.316;11.558;2023-08-20T00:51:26;9.30;;;3.50;;
30287;SDS011;17103;48.316;11.558;2023-08-20T00:53:53;5.72;;;3.13;;
30287;SDS011;17103;48.316;11.558;2023-08-20T00:56:21;7.28;;;4.38;;
30287;SDS011;17103;48.316;11.558;2023-08-20T00:58:48;6.75;;;3.28;;
30287;SDS011;17103;48.316;11.558;2023-08-20T01:01:13;13.93;;;3.40;;
30287;SDS011;17103;48.316;11.558;2023-08-20T01:03:39;4.63;;;2.90;;
30287;SDS011;17103;48.316;11.558;2023-08-20T01:06:12;6.50;;;3.38;;
30287;SDS011;17103;48.316;11.558;2023-08-20T01:08:47;5.53;;;4.20;;
30287;SDS011;17103;48.316;11.558;2023-08-20T01:11:24;5.55;;;3.05;;
30287;SDS011;17103;48.316;11.558;2023-08-20T01:13:59;7.90;;;3.95;;
30287;SDS011;17103;48.316;11.558;2023-08-20T01:16:26;6.15;;;3.35;;
30287;SDS011;17103;48.316;11.558;2023-08-20T01:18:51;6.68;;;3.50;;
30287;SDS011;17103;48.316;11.558;2023-08-20T01:21:30;7.93;;;3.63;;
30287;SDS011;17103;48.316;11.558;2023-08-20T01:24:55;6.60;;;3.60;;
30287;SDS011;17103;48.316;11.558;2023-08-20T01:27:08;7.00;;;3.60;;
30287;SDS011;17103;48.316;11.558;2023-08-20T01:29:48;6.82;;;3.33;;
30287;SDS011;17103;48.316;11.558;2023-08-20T01:32:15;6.55;;;3.63;;
30287;SDS011;17103;48.316;11.558;2023-08-20T01:34:53;6.32;;;3.55;;
30287;SDS011;17103;48.316;11.558;2023-08-20T01:37:20;6.88;;;3.30;;
30287;SDS011;17103;48.316;11.558;2023-08-20T01:39:46;5.97;;;3.45;;
30287;SDS011;17103;48.316;11.558;2023-08-20T01:42:12;6.43;;;3.10;;
30287;SDS011;17103;48.316;11.558;2023-08-20T01:44:37;5.55;;;3.28;;
30287;SDS011;17103;48.316;11.558;2023-08-20T01:47:03;4.28;;;3.30;;
30287;SDS011;17103;48.316;11.558;2023-08-20T01:49:29;9.38;;;3.47;;
30287;SDS011;17103;48.316;11.558;2023-08-20T01:51:54;5.63;;;3.75;;
30287;SDS011;17103;48.316;11.558;2023-08-20T01:54:20;5.10;;;3.33;;
30287;SDS011;17103;48.316;11.558;2023-08-20T01:56:46;6.18;;;3.78;;
30287;SDS011;17103;48.316;11.558;2023-08-20T01:59:14;9.02;;;3.88;;
30287;SDS011;17103;48.316;11.558;2023-08-20T02:01:40;6.20;;;3.97;;
30287;SDS011;17103;48.316;11.558;2023-08-20T02:04:06;6.03;;;3.30;;
30287;SDS011;17103;48.316;11.558;2023-08-20T02:06:33;7.43;;;3.90;;
30287;SDS011;17103;48.316;11.558;2023-08-20T02:08:58;6.70;;;3.45;;
30287;SDS011;17103;48.316;11.558;2023-08-20T02:11:24;6.05;;;3.92;;
30287;SDS011;17103;48.316;11.558;2023-08-20T02:13:49;5.70;;;3.90;;
30287;SDS011;17103;48.316;11.558;2023-08-20T02:16:17;6.10;;;3.53;;
30287;SDS011;17103;48.316;11.558;2023-08-20T02:18:42;7.88;;;4.00;;
30287;SDS011;17103;48.316;11.558;2023-08-20T02:21:08;5.28;;;3.40;;
30287;SDS011;17103;48.316;11.558;2023-08-20T02:23:33;6.60;;;3.92;;
30287;SDS011;17103;48.316;11.558;2023-08-20T02:25:59;5.28;;;3.60;;
30287;SDS011;17103;48.316;11.558;2023-08-20T02:28:25;6.07;;;3.60;;
30287;SDS011;17103;48.316;11.558;2023-08-20T02:30:53;6.03;;;4.15;;
30287;SDS011;17103;48.316;11.558;2023-08-20T02:33:28;4.95;;;3.42;;
30287;SDS011;17103;48.316;11.558;2023-08-20T02:36:01;5.25;;;3.15;;
30287;SDS011;17103;48.316;11.558;2023-08-20T02:38:28;11.88;;;4.32;;
30287;SDS011;17103;48.316;11.558;2023-08-20T02:40:54;5.60;;;3.50;;
30287;SDS011;17103;48.316;11.558;2023-08-20T02:43:22;5.78;;;3.15;;
30287;SDS011;17103;48.316;11.558;2023-08-20T02:45:49;6.70;;;3.60;;
30287;SDS011;17103;48.316;11.558;2023-08-20T02:48:17;7.22;;;4.03;;
30287;SDS011;17103;48.316;11.558;2023-08-20T02:50:47;5.95;;;3.58;;
30287;SDS011;17103;48.316;11.558;2023-08-20T02:53:17;6.10;;;3.70;;
30287;SDS011;17103;48.316;11.558;2023-08-20T02:55:44;7.78;;;4.47;;
30287;SDS011;17103;48.316;11.558;2023-08-20T02:58:14;8.35;;;4.47;;
30287;SDS011;17103;48.316;11.558;2023-08-20T03:00:40;7.78;;;4.60;;
30287;SDS011;17103;48.316;11.558;2023-08-20T03:03:07;5.90;;;4.30;;
30287;SDS011;17103;48.316;11.558;2023-08-20T03:05:33;6.25;;;3.78;;
30287;SDS011;17103;48.316;11.558;2023-08-20T03:08:02;8.10;;;4.57;;
30287;SDS011;17103;48.316;11.558;2023-08-20T03:10:30;7.32;;;4.25;;
30287;SDS011;17103;48.316;11.558;2023-08-20T03:12:58;7.47;;;3.97;;
30287;SDS011;17103;48.316;11.558;2023-08-20T03:15:24;6.93;;;4.25;;
30287;SDS011;17103;48.316;11.558;2023-08-20T03:17:50;6.32;;;4.20;;
30287;SDS011;17103;48.316;11.558;2023-08-20T03:20:15;7.10;;;4.70;;
30287;SDS011;17103;48.316;11.558;2023-08-20T03:22:42;9.57;;;4.57;;
30287;SDS011;17103;48.316;11.558;2023-08-20T03:25:08;5.43;;;4.03;;
30287;SDS011;17103;48.316;11.558;2023-08-20T03:27:33;5.72;;;3.63;;
30287;SDS011;17103;48.316;11.558;2023-08-20T03:29:59;7.43;;;3.97;;
30287;SDS011;17103;48.316;11.558;2023-08-20T03:32:25;8.13;;;4.38;;
30287;SDS011;17103;48.316;11.558;2023-08-20T03:34:53;5.15;;;4.43;;
30287;SDS011;17103;48.316;11.558;2023-08-20T04:04:14;7.78;;;4.82;;
30287;SDS011;17103;48.316;11.558;2023-08-20T04:06:39;5.95;;;3.95;;
30287;SDS011;17103;48.316;11.558;2023-08-20T04:09:05;5.13;;;4.00;;
30287;SDS011;17103;48.316;11.558;2023-08-20T04:11:32;8.43;;;4.88;;
30287;SDS011;17103;48.316;11.558;2023-08-20T04:13:57;8.38;;;3.80;;
30287;SDS011;17103;48.316;11.558;2023-08-20T04:16:23;6.22;;;4.00;;
30287;SDS011;17103;48.316;11.558;2023-08-20T04:18:49;6.18;;;3.92;;
30287;SDS011;17103;48.316;11.558;2023-08-20T04:21:15;4.72;;;3.92;;
30287;SDS011;17103;48.316;11.558;2023-08-20T04:23:40;7.60;;;3.95;;
30287;SDS011;17103;48.316;11.558;2023-08-20T04:26:06;5.28;;;3.05;;
30287;SDS011;17103;48.316;11.558;2023-08-20T04:28:32;6.25;;;3.33;;
30287;SDS011;17103;48.316;11.558;2023-08-20T04:30:58;3.47;;;3.17;;
30287;SDS011;17103;48.316;11.558;2023-08-20T04:33:25;6.35;;;3.33;;
30287;SDS011;17103;48.316;11.558;2023-08-20T04:35:51;7.68;;;3.88;;
30287;SDS011;17103;48.316;11.558;2023-08-20T04:38:17;6.45;;;3.42;;
30287;SDS011;17103;48.316;11.558;2023-08-20T04:40:45;5.53;;;3.00;;
30287;SDS011;17103;48.316;11.558;2023-08-20T04:43:12;5.78;;;3.40;;
30287;SDS011;17103;48.316;11.558;2023-08-20T04:45:38;7.22;;;3.25;;
30287;SDS011;17103;48.316;11.558;2023-08-20T04:48:04;5.78;;;3.53;;
30287;SDS011;17103;48.316;11.558;2023-08-20T04:50:30;6.63;;;3.67;;
30287;SDS011;17103;48.316;11.558;2023-08-20T04:52:56;5.85;;;3.58;;
30287;SDS011;17103;48.316;11.558;2023-08-20T04:55:24;6.47;;;3.72;;
30287;SDS011;17103;48.316;11.558;2023-08-20T04:57:50;4.85;;;3.13;;
30287;SDS011;17103;48.316;11.558;2023-08-20T05:00:16;4.82;;;3.45;;
30287;SDS011;17103;48.316;11.558;2023-08-20T05:02:41;5.97;;;3.90;;
30287;SDS011;17103;48.316;11.558;2023-08-20T05:05:07;6.68;;;3.95;;
30287;SDS011;17103;48.316;11.558;2023-08-20T05:07:33;7.05;;;4.10;;
30287;SDS011;17103;48.316;11.558;2023-08-20T05:09:58;5.53;;;4.10;;
30287;SDS011;17103;48.316;11.558;2023-08-20T05:12:24;6.00;;;4.22;;
30287;SDS011;17103;48.316;11.558;2023-08-20T05:14:49;6.47;;;4.55;;
30287;SDS011;17103;48.316;11.558;2023-08-20T05:17:15;6.78;;;4.10;;
30287;SDS011;17103;48.316;11.558;2023-08-20T05:19:41;8.43;;;4.55;;
30287;SDS011;17103;48.316;11.558;2023-08-20T05:22:06;8.43;;;4.43;;
30287;SDS011;17103;48.316;11.558;2023-08-20T05:24:32;7.95;;;5.05;;
30287;SDS011;17103;48.316;11.558;2023-08-20T05:27:08;5.00;;;4.50;;
30287;SDS011;17103;48.316;11.558;2023-08-20T05:29:35;5.95;;;3.90;;
30287;SDS011;17103;48.316;11.558;2023-08-20T05:32:01;5.78;;;4.50;;
30287;SDS011;17103;48.316;11.558;2023-08-20T05:34:28;7.55;;;4.18;;
30287;SDS011;17103;48.316;11.558;2023-08-20T05:36:54;6.07;;;4.05;;
30287;SDS011;17103;48.316;11.558;2023-08-20T05:39:19;8.00;;;3.72;;
30287;SDS011;17103;48.316;11.558;2023-08-20T05:41:45;7.40;;;4.05;;
30287;SDS011;17103;48.316;11.558;2023-08-20T05:44:10;7.45;;;4.20;;
30287;SDS011;17103;48.316;11.558;2023-08-20T05:46:36;7.05;;;4.20;;
30287;SDS011;17103;48.316;11.558;2023-08-20T05:49:02;8.27;;;4.07;;
30287;SDS011;17103;48.316;11.558;2023-08-20T05:51:27;5.93;;;4.57;;
30287;SDS011;17103;48.316;11.558;2023-08-20T05:53:53;5.28;;;3.78;;
30287;SDS011;17103;48.316;11.558;2023-08-20T05:56:19;7.25;;;4.82;;
30287;SDS011;17103;48.316;11.558;2023-08-20T05:58:44;7.35;;;3.50;;
30287;SDS011;17103;48.316;11.558;2023-08-20T06:01:13;8.73;;;3.80;;
30287;SDS011;17103;48.316;11.558;2023-08-20T06:03:38;8.02;;;4.82;;
30287;SDS011;17103;48.316;11.558;2023-08-20T06:06:04;6.90;;;4.50;;
30287;SDS011;17103;48.316;11.558;2023-08-20T06:08:29;6.55;;;4.10;;
30287;SDS011;17103;48.316;11.558;2023-08-20T06:10:55;10.82;;;5.13;;
30287;SDS011;17103;48.316;11.558;2023-08-20T06:13:21;5.60;;;3.85;;
30287;SDS011;17103;48.316;11.558;2023-08-20T06:15:47;5.78;;;3.63;;
30287;SDS011;17103;48.316;11.558;2023-08-20T06:18:12;6.00;;;4.00;;
30287;SDS011;17103;48.316;11.558;2023-08-20T06:20:38;5.32;;;3.60;;
30287;SDS011;17103;48.316;11.558;2023-08-20T06:23:04;4.88;;;4.03;;
30287;SDS011;17103;48.316;11.558;2023-08-20T06:25:29;7.88;;;4.05;;
30287;SDS011;17103;48.316;11.558;2023-08-20T06:27:55;7.93;;;4.72;;
30287;SDS011;17103;48.316;11.558;2023-08-20T06:30:20;6.43;;;4.28;;
30287;SDS011;17103;48.316;11.558;2023-08-20T06:32:46;10.27;;;4.82;;
30287;SDS011;17103;48.316;11.558;2023-08-20T06:35:12;7.50;;;4.20;;
30287;SDS011;17103;48.316;11.558;2023-08-20T06:37:40;7.53;;;4.20;;
30287;SDS011;17103;48.316;11.558;2023-08-20T06:40:06;8.68;;;5.25;;
30287;SDS011;17103;48.316;11.558;2023-08-20T06:42:33;7.18;;;5.18;;
30287;SDS011;17103;48.316;11.558;2023-08-20T06:44:58;5.78;;;4.20;;
30287;SDS011;17103;48.316;11.558;2023-08-20T06:47:27;5.75;;;4.18;;
30287;SDS011;17103;48.316;11.558;2023-08-20T06:49:53;6.47;;;3.90;;
30287;SDS011;17103;48.316;11.558;2023-08-20T06:52:19;8.98;;;4.55;;
30287;SDS011;17103;48.316;11.558;2023-08-20T06:54:44;9.93;;;4.18;;
30287;SDS011;17103;48.316;11.558;2023-08-20T06:57:10;5.82;;;4.35;;
30287;SDS011;17103;48.316;11.558;2023-08-20T06:59:36;6.85;;;4.18;;
30287;SDS011;17103;48.316;11.558;2023-08-20T07:02:01;9.75;;;4.15;;
30287;SDS011;17103;48.316;11.558;2023-08-20T07:04:28;5.88;;;3.92;;
30287;SDS011;17103;48.316;11.558;2023-08-20T07:06:54;6.07;;;4.25;;
30287;SDS011;17103;48.316;11.558;2023-08-20T07:09:20;6.63;;;3.90;;
30287;SDS011;17103;48.316;11.558;2023-08-20T07:11:45;7.78;;;4.70;;
30287;SDS011;17103;48.316;11.558;2023-08-20T07:14:11;8.27;;;3.67;;
30287;SDS011;17103;48.316;11.558;2023-08-20T07:16:37;4.60;;;3.38;;
30287;SDS011;17103;48.316;11.558;2023-08-20T07:19:02;5.80;;;4.85;;
30287;SDS011;17103;48.316;11.558;2023-08-20T07:21:28;4.28;;;3.83;;
30287;SDS011;17103;48.316;11.558;2023-08-20T07:23:54;6.18;;;4.03;;
30287;SDS011;17103;48.316;11.558;2023-08-20T07:26:19;4.80;;;3.47;;
30287;SDS011;17103;48.316;11.558;2023-08-20T07:28:45;6.88;;;3.20;;
30287;SDS011;17103;48.316;11.558;2023-08-20T07:31:25;4.10;;;3.47;;
30287;SDS011;17103;48.316;11.558;2023-08-20T07:33:55;6.70;;;3.85;;
30287;SDS011;17103;48.316;11.558;2023-08-20T07:36:23;7.25;;;3.50;;
30287;SDS011;17103;48.316;11.558;2023-08-20T07:38:50;4.90;;;3.60;;
30287;SDS011;17103;48.316;11.558;2023-08-20T07:41:17;4.18;;;3.70;;
30287;SDS011;17103;48.316;11.558;2023-08-20T07:43:43;7.32;;;3.83;;
30287;SDS011;17103;48.316;11.558;2023-08-20T07:46:09;4.60;;;3.50;;
30287;SDS011;17103;48.316;11.558;2023-08-20T07:48:49;7.85;;;3.85;;
30287;SDS011;17103;48.316;11.558;2023-08-20T07:51:15;4.70;;;3.50;;
30287;SDS011;17103;48.316;11.558;2023-08-20T07:53:41;5.22;;;3.10;;
30287;SDS011;17103;48.316;11.558;2023-08-20T07:56:07;5.95;;;3.33;;
30287;SDS011;17103;48.316;11.558;2023-08-20T07:58:34;5.18;;;3.63;;
30287;SDS011;17103;48.316;11.558;2023-08-20T08:00:59;5.05;;;3.53;;
30287;SDS011;17103;48.316;11.558;2023-08-20T08:03:25;6.80;;;3.67;;
30287;SDS011;17103;48.316;11.558;2023-08-20T08:05:52;5.78;;;3.97;;
30287;SDS011;17103;48.316;11.558;2023-08-20T08:08:20;7.60;;;3.17;;
30287;SDS011;17103;48.316;11.558;2023-08-20T08:10:47;5.25;;;3.22;;
30287;SDS011;17103;48.316;11.558;2023-08-20T08:13:18;6.10;;;3.20;;
30287;SDS011;17103;48.316;11.558;2023-08-20T08:15:45;7.15;;;3.35;;
30287;SDS011;17103;48.316;11.558;2023-08-20T08:18:11;7.05;;;3.10;;
30287;SDS011;17103;48.316;11.558;2023-08-20T08:20:38;5.47;;;2.92;;
30287;SDS011;17103;48.316;11.558;2023-08-20T08:23:03;4.40;;;2.65;;
30287;SDS011;17103;48.316;11.558;2023-08-20T08:25:29;6.28;;;3.38;;
30287;SDS011;17103;48.316;11.558;2023-08-20T08:27:55;4.97;;;2.65;;
30287;SDS011;17103;48.316;11.558;2023-08-20T08:30:20;7.90;;;3.25;;
30287;SDS011;17103;48.316;11.558;2023-08-20T08:32:46;5.45;;;3.47;;
30287;SDS011;17103;48.316;11.558;2023-08-20T08:35:12;5.53;;;3.42;;
30287;SDS011;17103;48.316;11.558;2023-08-20T08:37:38;3.65;;;2.88;;
30287;SDS011;17103;48.316;11.558;2023-08-20T08:40:03;8.20;;;3.05;;
30287;SDS011;17103;48.316;11.558;2023-08-20T08:42:32;7.28;;;3.50;;
30287;SDS011;17103;48.316;11.558;2023-08-20T08:45:01;4.45;;;2.72;;
30287;SDS011;17103;48.316;11.558;2023-08-20T08:47:28;5.55;;;3.45;;
30287;SDS011;17103;48.316;11.558;2023-08-20T08:49:54;3.97;;;2.83;;
30287;SDS011;17103;48.316;11.558;2023-08-20T08:52:24;6.13;;;3.00;;
30287;SDS011;17103;48.316;11.558;2023-08-20T08:54:51;4.43;;;3.20;;
30287;SDS011;17103;48.316;11.558;2023-08-20T08:57:18;5.35;;;2.58;;
30287;SDS011;17103;48.316;11.558;2023-08-20T08:59:44;5.25;;;3.10;;
30287;SDS011;17103;48.316;11.558;2023-08-20T09:02:10;4.18;;;2.85;;
30287;SDS011;17103;48.316;11.558;2023-08-20T09:04:40;4.72;;;2.92;;
30287;SDS011;17103;48.316;11.558;2023-08-20T09:07:10;5.55;;;2.60;;
30287;SDS011;17103;48.316;11.558;2023-08-20T09:09:37;3.13;;;2.45;;
30287;SDS011;17103;48.316;11.558;2023-08-20T09:12:17;7.60;;;2.88;;
30287;SDS011;17103;48.316;11.558;2023-08-20T09:14:48;7.90;;;2.58;;
30287;SDS011;17103;48.316;11.558;2023-08-20T09:17:15;6.53;;;2.78;;
30287;SDS011;17103;48.316;11.558;2023-08-20T09:19:42;5.80;;;2.60;;
30287;SDS011;17103;48.316;11.558;2023-08-20T09:22:10;4.25;;;2.20;;
30287;SDS011;17103;48.316;11.558;2023-08-20T09:24:46;4.25;;;2.88;;
30287;SDS011;17103;48.316;11.558;2023-08-20T09:27:16;5.53;;;2.55;;
30287;SDS011;17103;48.316;11.558;2023-08-20T09:29:46;3.25;;;2.70;;
30287;SDS011;17103;48.316;11.558;2023-08-20T09:32:15;4.65;;;2.30;;
30287;SDS011;17103;48.316;11.558;2023-08-20T09:34:43;3.50;;;2.67;;
30287;SDS011;17103;48.316;11.558;2023-08-20T09:37:10;4.28;;;2.63;;
30287;SDS011;17103;48.316;11.558;2023-08-20T09:39:37;4.00;;;2.55;;
30287;SDS011;17103;48.316;11.558;2023-08-20T09:42:04;3.03;;;2.28;;
30287;SDS011;17103;48.316;11.558;2023-08-20T09:44:35;3.70;;;2.60;;
30287;SDS011;17103;48.316;11.558;2023-08-20T09:47:07;3.70;;;2.60;;
30287;SDS011;17103;48.316;11.558;2023-08-20T09:49:40;5.65;;;2.45;;
30287;SDS011;17103;48.316;11.558;2023-08-20T09:52:07;5.22;;;3.05;;
30287;SDS011;17103;48.316;11.558;2023-08-20T09:57:12;4.00;;;3.00;;
30287;SDS011;17103;48.316;11.558;2023-08-20T09:59:55;5.03;;;2.42;;
30287;SDS011;17103;48.316;11.558;2023-08-20T10:02:21;4.47;;;2.55;;
30287;SDS011;17103;48.316;11.558;2023-08-20T10:04:47;3.25;;;2.67;;
30287;SDS011;17103;48.316;11.558;2023-08-20T10:07:15;4.22;;;2.83;;
30287;SDS011;17103;48.316;11.558;2023-08-20T10:09:41;2.85;;;2.28;;
30287;SDS011;17103;48.316;11.558;2023-08-20T10:12:10;3.30;;;2.63;;
30287;SDS011;17103;48.316;11.558;2023-08-20T10:14:40;5.22;;;2.83;;
30287;SDS011;17103;48.316;11.558;2023-08-20T10:17:09;4.80;;;3.35;;
30287;SDS011;17103;48.316;11.558;2023-08-20T10:19:36;5.40;;;2.92;;
30287;SDS011;17103;48.316;11.558;2023-08-20T10:22:03;2.78;;;2.58;;
30287;SDS011;17103;48.316;11.558;2023-08-20T10:24:39;5.07;;;2.58;;
30287;SDS011;17103;48.316;11.558;2023-08-20T10:27:23;3.13;;;2.83;;
30287;SDS011;17103;48.316;11.558;2023-08-20T10:29:52;3.75;;;2.95;;
30287;SDS011;17103;48.316;11.558;2023-08-20T10:32:18;3.75;;;2.70;;
30287;SDS011;17103;48.316;11.558;2023-08-20T10:34:49;4.20;;;2.80;;
30287;SDS011;17103;48.316;11.558;2023-08-20T10:37:19;3.70;;;2.80;;
30287;SDS011;17103;48.316;11.558;2023-08-20T10:39:56;3.47;;;2.90;;
30287;SDS011;17103;48.316;11.558;2023-08-20T10:44:56;5.10;;;3.17;;
30287;SDS011;17103;48.316;11.558;2023-08-20T10:47:40;4.07;;;3.50;;
30287;SDS011;17103;48.316;11.558;2023-08-20T10:50:07;4.45;;;3.08;;
30287;SDS011;17103;48.316;11.558;2023-08-20T10:52:42;3.42;;;2.90;;
30287;SDS011;17103;48.316;11.558;2023-08-20T10:55:13;5.18;;;3.30;;
30287;SDS011;17103;48.316;11.558;2023-08-20T10:57:40;5.20;;;2.70;;
30287;SDS011;17103;48.316;11.558;2023-08-20T11:00:06;3.15;;;2.85;;
30287;SDS011;17103;48.316;11.558;2023-08-20T11:02:39;6.10;;;3.00;;
30287;SDS011;17103;48.316;11.558;2023-08-20T11:05:16;4.50;;;3.08;;
30287;SDS011;17103;48.316;11.558;2023-08-20T11:07:44;4.28;;;2.72;;
30287;SDS011;17103;48.316;11.558;2023-08-20T11:10:12;3.05;;;2.80;;
30287;SDS011;17103;48.316;11.558;2023-08-20T11:12:42;3.70;;;2.78;;
30287;SDS011;17103;48.316;11.558;2023-08-20T11:15:09;3.35;;;2.45;;
30287;SDS011;17103;48.316;11.558;2023-08-20T11:17:40;4.60;;;2.80;;
30287;SDS011;17103;48.316;11.558;2023-08-20T11:20:07;14.48;;;3.03;;
30287;SDS011;17103;48.316;11.558;2023-08-20T11:22:32;3.13;;;2.38;;
30287;SDS011;17103;48.316;11.558;2023-08-20T11:24:59;2.78;;;2.38;;
30287;SDS011;17103;48.316;11.558;2023-08-20T11:27:28;3.55;;;3.10;;
30287;SDS011;17103;48.316;11.558;2023-08-20T11:29:54;5.45;;;2.78;;
30287;SDS011;17103;48.316;11.558;2023-08-20T11:32:21;2.80;;;2.60;;
30287;SDS011;17103;48.316;11.558;2023-08-20T11:34:48;4.05;;;2.80;;
30287;SDS011;17103;48.316;11.558;2023-08-20T11:37:17;4.22;;;2.60;;
30287;SDS011;17103;48.316;11.558;2023-08-20T11:39:47;5.05;;;3.05;;
30287;SDS011;17103;48.316;11.558;2023-08-20T11:42:16;4.57;;;2.60;;
30287;SDS011;17103;48.316;11.558;2023-08-20T11:44:42;2.95;;;2.72;;
30287;SDS011;17103;48.316;11.558;2023-08-20T11:47:15;5.97;;;3.20;;
30287;SDS011;17103;48.316;11.558;2023-08-20T11:49:41;3.25;;;2.88;;
30287;SDS011;17103;48.316;11.558;2023-08-20T11:52:07;6.47;;;2.22;;
30287;SDS011;17103;48.316;11.558;2023-08-20T11:54:32;4.32;;;2.40;;
30287;SDS011;17103;48.316;11.558;2023-08-20T11:57:03;2.75;;;2.35;;
30287;SDS011;17103;48.316;11.558;2023-08-20T12:02:52;6.20;;;2.60;;
30287;SDS011;17103;48.316;11.558;2023-08-20T12:05:19;2.53;;;2.33;;
30287;SDS011;17103;48.316;11.558;2023-08-20T12:07:54;5.68;;;2.55;;
30287;SDS011;17103;48.316;11.558;2023-08-20T12:10:21;3.10;;;2.50;;
30287;SDS011;17103;48.316;11.558;2023-08-20T12:12:48;2.67;;;2.47;;
30287;SDS011;17103;48.316;11.558;2023-08-20T12:15:14;4.50;;;2.53;;
30287;SDS011;17103;48.316;11.558;2023-08-20T12:17:40;3.13;;;2.47;;
30287;SDS011;17103;48.316;11.558;2023-08-20T12:20:06;4.43;;;2.15;;
30287;SDS011;17103;48.316;11.558;2023-08-20T12:22:39;3.42;;;2.10;;
30287;SDS011;17103;48.316;11.558;2023-08-20T12:25:06;3.08;;;2.50;;
30287;SDS011;17103;48.316;11.558;2023-08-20T12:27:41;3.13;;;2.50;;
30287;SDS011;17103;48.316;11.558;2023-08-20T12:30:07;2.50;;;2.30;;
30287;SDS011;17103;48.316;11.558;2023-08-20T12:32:33;4.18;;;2.53;;
30287;SDS011;17103;48.316;11.558;2023-08-20T12:34:59;3.63;;;2.80;;
30287;SDS011;17103;48.316;11.558;2023-08-20T12:37:25;2.88;;;2.58;;
30287;SDS011;17103;48.316;11.558;2023-08-20T12:39:50;3.25;;;1.95;;
30287;SDS011;17103;48.316;11.558;2023-08-20T12:42:16;3.38;;;2.33;;
30287;SDS011;17103;48.316;11.558;2023-08-20T12:44:42;4.13;;;2.97;;
30287;SDS011;17103;48.316;11.558;2023-08-20T12:47:08;2.88;;;2.53;;
30287;SDS011;17103;48.316;11.558;2023-08-20T12:49:34;4.70;;;2.85;;
30287;SDS011;17103;48.316;11.558;2023-08-20T12:51:59;2.65;;;2.45;;
30287;SDS011;17103;48.316;11.558;2023-08-20T12:54:25;3.30;;;2.22;;
30287;SDS011;17103;48.316;11.558;2023-08-20T12:56:51;2.92;;;2.60;;
30287;SDS011;17103;48.316;11.558;2023-08-20T12:59:17;3.33;;;2.45;;
30287;SDS011;17103;48.316;11.558;2023-08-20T13:01:42;3.17;;;2.20;;
30287;SDS011;17103;48.316;11.558;2023-08-20T13:04:08;2.53;;;2.15;;
30287;SDS011;17103;48.316;11.558;2023-08-20T13:06:35;3.58;;;2.60;;
30287;SDS011;17103;48.316;11.558;2023-08-20T13:09:02;4.05;;;2.63;;
30287;SDS011;17103;48.316;11.558;2023-08-20T13:11:28;3.85;;;2.50;;
30287;SDS011;17103;48.316;11.558;2023-08-20T13:13:56;6.32;;;2.92;;
30287;SDS011;17103;48.316;11.558;2023-08-20T13:16:22;3.78;;;3.00;;
30287;SDS011;17103;48.316;11.558;2023-08-20T13:18:48;3.55;;;2.30;;
30287;SDS011;17103;48.316;11.558;2023-08-20T13:21:14;4.22;;;2.72;;
30287;SDS011;17103;48.316;11.558;2023-08-20T13:23:40;3.45;;;3.15;;
30287;SDS011;17103;48.316;11.558;2023-08-20T13:26:06;3.72;;;2.97;;
30287;SDS011;17103;48.316;11.558;2023-08-20T13:28:32;6.57;;;3.10;;
30287;SDS011;17103;48.316;11.558;2023-08-20T13:30:57;6.47;;;3.47;;
30287;SDS011;17103;48.316;11.558;2023-08-20T13:33:23;3.33;;;2.72;;
30287;SDS011;17103;48.316;11.558;2023-08-20T13:35:58;3.50;;;2.70;;
30287;SDS011;17103;48.316;11.558;2023-08-20T13:38:27;4.93;;;3.13;;
30287;SDS011;17103;48.316;11.558;2023-08-20T13:40:53;3.63;;;2.65;;
30287;SDS011;17103;48.316;11.558;2023-08-20T13:43:19;3.92;;;2.50;;
30287;SDS011;17103;48.316;11.558;2023-08-20T13:45:46;3.42;;;2.85;;
30287;SDS011;17103;48.316;11.558;2023-08-20T13:48:12;4.90;;;3.33;;
30287;SDS011;17103;48.316;11.558;2023-08-20T13:50:38;2.97;;;2.67;;
30287;SDS011;17103;48.316;11.558;2023-08-20T13:53:03;2.83;;;2.63;;
30287;SDS011;17103;48.316;11.558;2023-08-20T13:55:29;3.10;;;2.63;;
30287;SDS011;17103;48.316;11.558;2023-08-20T13:57:56;2.63;;;2.38;;
30287;SDS011;17103;48.316;11.558;2023-08-20T14:00:22;5.28;;;2.80;;
30287;SDS011;17103;48.316;11.558;2023-08-20T14:02:47;4.45;;;2.78;;
30287;SDS011;17103;48.316;11.558;2023-08-20T14:05:13;3.30;;;2.50;;
30287;SDS011;17103;48.316;11.558;2023-08-20T14:07:48;4.03;;;2.55;;
30287;SDS011;17103;48.316;11.558;2023-08-20T14:10:14;4.10;;;2.58;;
30287;SDS011;17103;48.316;11.558;2023-08-20T14:12:39;3.10;;;2.78;;
30287;SDS011;17103;48.316;11.558;2023-08-20T14:15:05;3.88;;;2.70;;
30287;SDS011;17103;48.316;11.558;2023-08-20T14:17:32;3.42;;;2.90;;
30287;SDS011;17103;48.316;11.558;2023-08-20T14:19:57;3.97;;;2.65;;
30287;SDS011;17103;48.316;11.558;2023-08-20T14:22:25;3.42;;;2.97;;
30287;SDS011;17103;48.316;11.558;2023-08-20T14:24:51;3.95;;;2.60;;
30287;SDS011;17103;48.316;11.558;2023-08-20T14:27:16;4.50;;;2.75;;
30287;SDS011;17103;48.316;11.558;2023-08-20T14:29:43;3.90;;;2.88;;
30287;SDS011;17103;48.316;11.558;2023-08-20T14:32:09;5.18;;;2.92;;
30287;SDS011;17103;48.316;11.558;2023-08-20T14:34:34;4.47;;;2.42;;
30287;SDS011;17103;48.316;11.558;2023-08-20T14:37:00;3.33;;;2.58;;
30287;SDS011;17103;48.316;11.558;2023-08-20T14:39:26;5.30;;;2.72;;
30287;SDS011;17103;48.316;11.558;2023-08-20T14:41:51;3.25;;;2.42;;
30287;SDS011;17103;48.316;11.558;2023-08-20T14:44:17;3.35;;;2.30;;
30287;SDS011;17103;48.316;11.558;2023-08-20T14:46:50;2.42;;;2.00;;
30287;SDS011;17103;48.316;11.558;2023-08-20T14:49:24;3.25;;;2.30;;
30287;SDS011;17103;48.316;11.558;2023-08-20T14:51:52;5.75;;;2.70;;
30287;SDS011;17103;48.316;11.558;2023-08-20T14:54:18;3.45;;;2.35;;
30287;SDS011;17103;48.316;11.558;2023-08-20T14:56:43;3.03;;;2.15;;
30287;SDS011;17103;48.316;11.558;2023-08-20T14:59:10;2.75;;;2.17;;
30287;SDS011;17103;48.316;11.558;2023-08-20T15:01:36;2.92;;;2.63;;
30287;SDS011;17103;48.316;11.558;2023-08-20T15:04:01;3.25;;;2.88;;
30287;SDS011;17103;48.316;11.558;2023-08-20T15:06:27;3.55;;;2.58;;
30287;SDS011;17103;48.316;11.558;2023-08-20T15:08:53;3.00;;;2.20;;
30287;SDS011;17103;48.316;11.558;2023-08-20T15:11:18;2.80;;;2.60;;